createdAt,value
2017-07-08T05:31:53.576Z,2796
2017-07-08T05:32:19.050Z,2824
2017-07-08T05:32:44.519Z,2844
2017-07-08T05:33:09.990Z,2856
2017-07-08T05:33:35.468Z,2876
2017-07-08T05:34:00.944Z,2896
2017-07-08T05:34:26.424Z,2912
2017-07-08T05:34:51.927Z,2924
2017-07-08T05:35:17.383Z,2924
2017-07-08T05:35:42.854Z,2932
2017-07-08T05:36:08.313Z,2956
2017-07-08T05:36:33.843Z,2996
2017-07-08T05:36:59.317Z,3052
2017-07-08T05:37:24.796Z,3124
2017-07-08T05:37:50.289Z,3220
2017-07-08T05:38:15.747Z,3332
2017-07-08T05:38:41.217Z,3420
2017-07-08T05:39:06.671Z,3484
2017-07-08T05:39:32.131Z,3560
2017-07-08T05:39:57.591Z,3668
2017-07-08T05:40:23.065Z,3760
2017-07-08T05:40:48.548Z,3852
2017-07-08T05:41:14.070Z,3912
2017-07-08T05:41:39.492Z,3988
2017-07-08T05:42:04.949Z,4020
2017-07-08T05:42:30.438Z,4008
2017-07-08T05:42:55.883Z,3960
2017-07-08T05:43:21.381Z,3880
2017-07-08T05:43:46.880Z,3796
2017-07-08T05:44:12.345Z,3680
2017-07-08T05:44:37.800Z,3568
2017-07-08T05:45:03.253Z,3452
2017-07-08T05:45:28.761Z,3364
2017-07-08T05:45:54.210Z,3336
2017-07-08T05:46:19.662Z,3360
2017-07-08T05:46:45.143Z,3408
2017-07-08T05:47:10.642Z,3496
2017-07-08T05:47:36.110Z,3568
2017-07-08T05:48:01.605Z,3656
2017-07-08T05:48:27.126Z,3728
2017-07-08T05:48:52.591Z,3784
2017-07-08T05:49:18.080Z,3812
2017-07-08T05:49:43.529Z,3816
2017-07-08T05:50:09.018Z,3792
2017-07-08T05:50:34.479Z,3748
2017-07-08T05:50:59.959Z,3716
2017-07-08T05:51:25.437Z,3664
2017-07-08T05:51:50.923Z,3600
2017-07-08T05:52:16.367Z,3540
2017-07-08T05:52:41.842Z,3488
2017-07-08T05:53:07.330Z,3420
2017-07-08T05:53:32.799Z,3364
2017-07-08T05:53:58.256Z,3328
2017-07-08T05:54:23.746Z,3296
2017-07-08T05:54:49.243Z,3272
2017-07-08T05:55:14.679Z,3280
2017-07-08T05:55:40.174Z,3308
2017-07-08T05:56:05.672Z,3336
2017-07-08T05:56:31.168Z,3340
2017-07-08T05:56:56.623Z,3304
2017-07-08T05:57:22.094Z,3224
2017-07-08T05:57:47.562Z,3148
2017-07-08T05:58:13.024Z,3084
2017-07-08T05:58:38.498Z,3024
2017-07-08T05:59:03.959Z,2988
2017-07-08T05:59:29.467Z,3000
2017-07-08T05:59:54.938Z,3028
2017-07-08T06:00:20.413Z,3052
2017-07-08T06:00:45.866Z,3072
2017-07-08T06:01:11.334Z,3108
2017-07-08T06:01:36.793Z,3164
2017-07-08T06:02:02.263Z,3200
2017-07-08T06:02:27.738Z,3248
2017-07-08T06:02:53.227Z,3320
2017-07-08T06:03:18.712Z,3316
2017-07-08T06:03:44.154Z,3248
2017-07-08T06:04:09.625Z,3136
2017-07-08T06:04:35.111Z,2996
2017-07-08T06:05:00.577Z,2876
2017-07-08T06:05:26.041Z,2784
2017-07-08T06:05:51.499Z,2752
2017-07-08T06:06:16.953Z,2768
2017-07-08T06:06:42.418Z,2808
2017-07-08T06:07:07.864Z,2856
2017-07-08T06:07:33.335Z,2904
2017-07-08T06:07:58.820Z,2952
2017-07-08T06:08:24.288Z,3016
2017-07-08T06:08:49.761Z,3080
2017-07-08T06:09:15.230Z,3144
2017-07-08T06:09:40.716Z,3188
2017-07-08T06:10:06.202Z,3220
2017-07-08T06:10:31.678Z,3260
2017-07-08T06:10:57.182Z,3316
2017-07-08T06:11:22.666Z,3356
2017-07-08T06:11:48.153Z,3384
2017-07-08T06:12:13.634Z,3408
2017-07-08T06:12:39.102Z,3452
2017-07-08T06:13:04.595Z,3516
2017-07-08T06:13:30.076Z,3568
2017-07-08T06:13:55.554Z,3612
2017-07-08T06:14:20.997Z,3620
2017-07-08T06:14:46.481Z,3620
2017-07-08T06:15:11.936Z,3604
2017-07-08T06:15:37.387Z,3580
2017-07-08T06:16:02.875Z,3572
2017-07-08T06:16:28.380Z,3632
2017-07-08T06:16:53.878Z,3724
2017-07-08T06:17:19.324Z,3832
2017-07-08T06:17:44.807Z,3916
2017-07-08T06:18:10.288Z,3960
2017-07-08T06:18:35.799Z,3952
2017-07-08T06:19:01.266Z,3880
2017-07-08T06:19:26.745Z,3772
2017-07-08T06:19:52.227Z,3692
2017-07-08T06:20:17.712Z,3632
2017-07-08T06:20:43.220Z,3628
2017-07-08T06:21:08.720Z,3696
2017-07-08T06:21:34.194Z,3840
2017-07-08T06:21:59.676Z,3980
2017-07-08T06:22:25.160Z,4036
2017-07-08T06:22:50.644Z,4016
2017-07-08T06:23:16.128Z,3988
2017-07-08T06:23:41.584Z,3940
2017-07-08T06:24:07.084Z,3944
2017-07-08T06:24:32.615Z,3988
2017-07-08T06:24:58.042Z,4080
2017-07-08T06:25:23.536Z,4212
2017-07-08T06:25:48.984Z,4360
2017-07-08T06:26:14.466Z,4452
2017-07-08T06:26:39.940Z,4488
2017-07-08T06:27:05.423Z,4492
2017-07-08T06:27:30.923Z,4460
2017-07-08T06:27:56.381Z,4416
2017-07-08T06:28:21.875Z,4396
2017-07-08T06:28:47.351Z,4380
2017-07-08T06:29:12.820Z,4384
2017-07-08T06:29:38.295Z,4416
2017-07-08T06:30:03.752Z,4480
2017-07-08T06:30:29.247Z,4552
2017-07-08T06:30:54.702Z,4576
2017-07-08T06:31:20.183Z,4560
2017-07-08T06:31:45.686Z,4492
2017-07-08T06:32:11.184Z,4380
2017-07-08T06:32:36.671Z,4316
2017-07-08T06:33:02.127Z,4292
2017-07-08T06:33:27.618Z,4320
2017-07-08T06:33:53.086Z,4352
2017-07-08T06:34:18.577Z,4372
2017-07-08T06:34:44.023Z,4372
2017-07-08T06:35:09.458Z,4404
2017-07-08T06:35:34.945Z,4504
2017-07-08T06:36:00.428Z,4632
2017-07-08T06:36:25.918Z,4772
2017-07-08T06:36:51.384Z,4864
2017-07-08T06:37:16.911Z,4952
2017-07-08T06:37:42.442Z,4960
2017-07-08T06:38:07.867Z,4904
2017-07-08T06:38:33.367Z,4892
2017-07-08T06:38:58.829Z,4896
2017-07-08T06:39:24.294Z,4916
2017-07-08T06:39:49.754Z,4988
2017-07-08T06:40:15.261Z,5088
2017-07-08T06:40:40.659Z,5220
2017-07-08T06:41:06.110Z,5348
2017-07-08T06:41:31.594Z,5448
2017-07-08T06:41:57.112Z,5544
2017-07-08T06:42:22.570Z,5652
2017-07-08T06:42:48.072Z,5532
2017-07-08T06:43:13.559Z,5484
2017-07-08T06:43:39.023Z,5540
2017-07-08T06:44:04.561Z,5664
2017-07-08T06:44:30.048Z,5584
2017-07-08T06:44:55.529Z,5428
2017-07-08T06:45:21.007Z,5508
2017-07-08T06:45:46.484Z,5012
2017-07-08T06:46:11.962Z,5008
2017-07-08T06:46:37.454Z,4960
2017-07-08T06:47:02.930Z,4988
2017-07-08T06:47:28.350Z,5136
2017-07-08T06:47:53.810Z,5388
2017-07-08T06:48:19.273Z,5688
2017-07-08T06:48:44.737Z,6004
2017-07-08T06:49:10.221Z,6336
2017-07-08T06:49:35.686Z,6616
2017-07-08T06:50:01.130Z,6796
2017-07-08T06:50:26.627Z,6972
2017-07-08T06:50:52.123Z,6960
2017-07-08T06:51:17.565Z,6892
2017-07-08T06:51:43.066Z,6888
2017-07-08T06:52:08.503Z,6896
2017-07-08T06:52:33.966Z,6772
2017-07-08T06:52:59.433Z,6744
2017-07-08T06:53:24.903Z,6760
2017-07-08T06:53:50.405Z,6700
2017-07-08T06:54:15.877Z,6524
2017-07-08T06:54:41.357Z,6296
2017-07-08T06:55:06.805Z,6364
2017-07-08T06:55:32.271Z,6296
2017-07-08T06:55:57.732Z,6220
2017-07-08T06:56:23.213Z,5996
2017-07-08T06:56:48.714Z,6180
2017-07-08T06:57:14.155Z,6132
2017-07-08T06:57:39.674Z,6124
2017-07-08T06:58:05.152Z,6116
2017-07-08T06:58:30.641Z,6080
2017-07-08T06:59:54.125Z,6104
2017-07-08T07:00:19.609Z,6020
2017-07-08T07:00:45.068Z,5988
2017-07-08T07:01:10.550Z,5892
2017-07-08T07:01:36.045Z,5900
2017-07-08T07:02:01.503Z,6012
2017-07-08T07:02:26.995Z,6116
2017-07-08T07:02:52.433Z,6292
2017-07-08T07:03:17.896Z,6416
2017-07-08T07:03:43.367Z,6604
2017-07-08T07:04:08.821Z,6568
2017-07-08T07:04:34.262Z,6620
2017-07-08T07:04:59.738Z,6672
2017-07-08T07:05:25.215Z,6484
2017-07-08T07:05:50.703Z,6488
2017-07-08T07:06:16.166Z,6420
2017-07-08T07:06:41.634Z,6324
2017-07-08T07:07:07.106Z,6200
2017-07-08T07:07:32.561Z,6032
2017-07-08T07:07:58.038Z,5776
2017-07-08T07:08:23.514Z,5428
2017-07-08T07:08:49.011Z,5068
2017-07-08T07:09:14.477Z,4704
2017-07-08T07:09:39.947Z,4456
2017-07-08T07:10:05.421Z,4456
2017-07-08T07:10:30.919Z,4680
2017-07-08T07:10:56.378Z,5140
2017-07-08T07:11:21.844Z,5776
2017-07-08T07:11:47.330Z,6352
2017-07-08T07:12:12.767Z,7016
2017-07-08T07:12:38.225Z,7448
2017-07-08T07:13:03.726Z,7616
2017-07-08T07:13:29.214Z,7676
2017-07-08T07:13:54.691Z,7912
2017-07-08T07:14:20.196Z,8060
2017-07-08T07:14:45.659Z,8384
2017-07-08T07:15:11.129Z,8452
2017-07-08T07:15:36.840Z,8408
2017-07-08T07:16:02.309Z,8204
2017-07-08T07:16:27.801Z,8052
2017-07-08T07:16:53.250Z,8020
2017-07-08T07:17:18.719Z,8012
2017-07-08T07:17:44.185Z,8104
2017-07-08T07:18:09.651Z,8056
2017-07-08T07:18:35.118Z,8236
2017-07-08T07:19:00.599Z,8572
2017-07-08T07:19:26.082Z,8724
2017-07-08T07:19:51.563Z,8796
2017-07-08T07:20:17.017Z,8740
2017-07-08T07:20:42.478Z,8472
2017-07-08T07:21:07.971Z,8384
2017-07-08T07:21:33.456Z,8216
2017-07-08T07:21:58.903Z,8156
2017-07-08T07:22:24.375Z,8168
2017-07-08T07:22:49.857Z,8208
2017-07-08T07:23:15.315Z,8228
2017-07-08T07:23:40.794Z,8224
2017-07-08T07:24:06.252Z,8148
2017-07-08T07:24:31.688Z,8036
2017-07-08T07:24:57.148Z,7900
2017-07-08T07:25:22.661Z,7732
2017-07-08T07:25:48.125Z,7560
2017-07-08T07:26:13.603Z,7404
2017-07-08T07:26:39.061Z,7248
2017-07-08T07:27:04.516Z,7196
2017-07-08T07:27:29.967Z,7052
2017-07-08T07:27:55.435Z,6476
2017-07-08T07:28:20.877Z,6424
2017-07-08T07:28:46.317Z,6380
2017-07-08T07:29:11.811Z,6524
2017-07-08T07:29:37.320Z,6392
2017-07-08T07:30:02.791Z,6420
2017-07-08T07:30:28.254Z,6412
2017-07-08T07:30:53.738Z,6432
2017-07-08T07:31:19.219Z,6568
2017-07-08T07:31:44.683Z,6736
2017-07-08T07:32:10.135Z,6876
2017-07-08T07:32:35.630Z,6944
2017-07-08T07:33:01.088Z,7568
2017-07-08T07:33:26.545Z,7584
2017-07-08T07:33:52.002Z,7712
2017-07-08T07:34:17.474Z,7880
2017-07-08T07:34:42.957Z,8052
2017-07-08T07:35:08.432Z,8248
2017-07-08T07:35:33.895Z,8308
2017-07-08T07:35:59.383Z,8280
2017-07-08T07:36:24.872Z,8252
2017-07-08T07:36:50.347Z,8240
2017-07-08T07:37:15.814Z,8200
2017-07-08T07:37:41.300Z,8248
2017-07-08T07:38:06.782Z,8260
2017-07-08T07:38:32.225Z,8312
2017-07-08T07:38:57.723Z,8324
2017-07-08T07:39:23.201Z,8356
2017-07-08T07:39:48.685Z,8372
2017-07-08T07:40:14.167Z,8424
2017-07-08T07:40:39.637Z,8408
2017-07-08T07:41:05.119Z,8352
2017-07-08T07:41:30.577Z,8268
2017-07-08T07:41:56.027Z,8224
2017-07-08T07:42:21.484Z,8164
2017-07-08T07:42:46.965Z,8084
2017-07-08T07:43:12.437Z,8068
2017-07-08T07:43:38.077Z,7992
2017-07-08T07:44:03.608Z,7488
2017-07-08T07:44:29.066Z,7924
2017-07-08T07:44:54.563Z,7896
2017-07-08T07:45:20.131Z,7636
2017-07-08T07:45:45.640Z,7664
2017-07-08T07:46:11.141Z,7572
2017-07-08T07:46:36.921Z,7520
2017-07-08T07:47:02.380Z,7636
2017-07-08T07:47:27.860Z,7472
2017-07-08T07:47:53.295Z,7384
2017-07-08T07:48:18.742Z,7336
2017-07-08T07:48:44.302Z,7356
2017-07-08T07:49:09.771Z,7332
2017-07-08T07:49:35.255Z,7072
2017-07-08T07:50:00.753Z,7336
2017-07-08T07:50:26.205Z,7388
2017-07-08T07:50:51.700Z,7448
2017-07-08T07:51:17.175Z,7488
2017-07-08T07:52:40.667Z,7624
2017-07-08T07:53:06.141Z,7704
2017-07-08T07:53:31.616Z,7744
2017-07-08T07:53:57.099Z,7708
2017-07-08T07:54:22.584Z,7616
2017-07-08T07:54:48.054Z,7424
2017-07-08T07:55:13.524Z,7196
2017-07-08T07:55:38.983Z,6912
2017-07-08T07:56:04.463Z,6676
2017-07-08T07:56:29.939Z,6440
2017-07-08T07:56:55.417Z,6392
2017-07-08T07:57:20.851Z,6520
2017-07-08T07:57:46.322Z,6824
2017-07-08T07:58:11.802Z,7208
2017-07-08T07:58:37.275Z,7464
2017-07-08T07:59:02.760Z,7532
2017-07-08T07:59:28.252Z,7348
2017-07-08T07:59:53.727Z,7196
2017-07-08T08:00:19.180Z,7136
2017-07-08T08:00:44.631Z,7176
2017-07-08T08:01:10.116Z,7516
2017-07-08T08:01:35.610Z,7796
2017-07-08T08:02:01.078Z,8136
2017-07-08T08:02:26.541Z,8372
2017-07-08T08:02:51.977Z,8628
2017-07-08T08:03:17.461Z,8940
2017-07-08T08:03:42.970Z,9192
2017-07-08T08:04:08.418Z,9796
2017-07-08T08:04:33.875Z,9716
2017-07-08T08:04:59.364Z,9940
2017-07-08T08:05:24.862Z,10180
2017-07-08T08:05:50.304Z,10568
2017-07-08T08:06:15.804Z,10500
2017-07-08T08:06:41.294Z,10484
2017-07-08T08:07:06.774Z,10440
2017-07-08T08:07:32.229Z,10448
2017-07-08T08:07:57.709Z,10380
2017-07-08T08:08:23.164Z,10328
2017-07-08T08:08:48.659Z,10260
2017-07-08T08:09:14.155Z,10092
2017-07-08T08:09:39.638Z,9912
2017-07-08T08:10:05.128Z,9764
2017-07-08T08:10:30.603Z,10228
2017-07-08T08:10:56.112Z,9600
2017-07-08T08:11:21.603Z,9432
2017-07-08T08:11:47.056Z,9300
2017-07-08T08:12:12.569Z,9204
2017-07-08T08:12:38.069Z,8992
2017-07-08T08:13:03.529Z,8792
2017-07-08T08:13:28.989Z,8608
2017-07-08T08:13:54.488Z,8364
2017-07-08T08:14:19.951Z,8104
2017-07-08T08:14:45.441Z,7852
2017-07-08T08:15:10.906Z,7688
2017-07-08T08:15:36.396Z,7496
2017-07-08T08:16:01.914Z,7344
2017-07-08T08:16:27.387Z,7356
2017-07-08T08:16:52.871Z,7316
2017-07-08T08:17:18.350Z,7332
2017-07-08T08:17:43.802Z,7304
2017-07-08T08:18:09.291Z,7284
2017-07-08T08:18:34.833Z,7336
2017-07-08T08:19:00.320Z,7284
2017-07-08T08:19:25.786Z,7220
2017-07-08T08:19:51.291Z,7200
2017-07-08T08:20:16.785Z,7324
2017-07-08T08:20:42.256Z,7356
2017-07-08T08:21:07.745Z,7492
2017-07-08T08:21:33.199Z,7624
2017-07-08T08:21:58.717Z,7948
2017-07-08T08:22:24.194Z,8312
2017-07-08T08:22:49.668Z,9148
2017-07-08T08:23:15.135Z,8912
2017-07-08T08:23:40.634Z,9464
2017-07-08T08:24:06.108Z,10108
2017-07-08T08:24:31.575Z,11188
2017-07-08T08:24:57.033Z,11264
2017-07-08T08:25:22.518Z,11824
2017-07-08T08:25:47.973Z,11436
2017-07-08T08:26:13.518Z,11020
2017-07-08T08:26:38.906Z,11016
2017-07-08T08:27:04.395Z,10960
2017-07-08T08:27:29.884Z,10332
2017-07-08T08:27:55.355Z,10328
2017-07-08T08:28:20.827Z,10064
2017-07-08T08:28:46.287Z,9864
2017-07-08T08:29:11.725Z,10276
2017-07-08T08:29:37.202Z,10288
2017-07-08T08:30:02.686Z,10540
2017-07-08T08:30:28.167Z,10848
2017-07-08T08:30:53.634Z,11316
2017-07-08T08:31:19.104Z,10828
2017-07-08T08:31:44.600Z,11216
2017-07-08T08:32:10.073Z,11052
2017-07-08T08:32:35.564Z,10844
2017-07-08T08:33:01.025Z,10600
2017-07-08T08:33:26.477Z,10544
2017-07-08T08:33:52.004Z,10120
2017-07-08T08:34:17.419Z,10208
2017-07-08T08:34:42.912Z,10560
2017-07-08T08:35:08.398Z,11040
2017-07-08T08:35:33.858Z,11372
2017-07-08T08:35:59.366Z,11472
2017-07-08T08:36:24.842Z,11464
2017-07-08T08:36:50.327Z,11356
2017-07-08T08:37:15.786Z,11288
2017-07-08T08:37:41.277Z,11188
2017-07-08T08:38:06.780Z,11132
2017-07-08T08:38:32.265Z,11104
2017-07-08T08:38:57.732Z,11112
2017-07-08T08:39:23.197Z,11120
2017-07-08T08:39:48.686Z,11136
2017-07-08T08:40:14.178Z,11060
2017-07-08T08:40:39.655Z,10900
2017-07-08T08:41:05.120Z,10820
2017-07-08T08:41:30.556Z,10668
2017-07-08T08:41:56.049Z,10564
2017-07-08T08:42:21.506Z,10492
2017-07-08T08:42:46.976Z,10476
2017-07-08T08:43:12.463Z,10452
2017-07-08T08:43:37.944Z,10436
2017-07-08T08:44:03.409Z,10392
2017-07-08T08:44:28.874Z,10364
2017-07-08T08:44:54.351Z,10344
2017-07-08T08:45:19.817Z,10328
2017-07-08T08:45:45.291Z,10320
2017-07-08T08:46:10.777Z,10260
2017-07-08T08:46:36.281Z,10180
2017-07-08T08:47:01.757Z,10184
2017-07-08T08:47:27.257Z,10180
2017-07-08T08:47:52.712Z,10196
2017-07-08T08:48:18.244Z,10188
2017-07-08T08:48:43.736Z,10096
2017-07-08T08:49:09.205Z,9944
2017-07-08T08:49:34.753Z,9872
2017-07-08T08:50:00.230Z,9924
2017-07-08T08:50:25.708Z,9916
2017-07-08T08:50:51.184Z,9840
2017-07-08T08:51:16.668Z,9768
2017-07-08T08:51:42.181Z,9800
2017-07-08T08:52:07.731Z,9812
2017-07-08T08:52:33.153Z,9796
2017-07-08T08:52:58.626Z,9792
2017-07-08T08:53:24.098Z,9748
2017-07-08T08:53:49.675Z,9708
2017-07-08T08:54:15.281Z,9724
2017-07-08T08:54:40.754Z,9712
2017-07-08T08:55:06.217Z,9716
2017-07-08T08:55:31.699Z,9704
2017-07-08T08:55:57.194Z,9652
2017-07-08T08:56:22.667Z,9596
2017-07-08T08:56:48.155Z,9524
2017-07-08T08:57:13.627Z,9468
2017-07-08T08:57:39.115Z,9500
2017-07-08T08:58:04.586Z,9528
2017-07-08T08:58:30.045Z,9608
2017-07-08T08:58:55.547Z,9684
2017-07-08T09:00:19.056Z,9880
2017-07-08T09:00:44.530Z,9992
2017-07-08T09:01:10.012Z,10092
2017-07-08T09:01:35.500Z,10120
2017-07-08T09:02:00.998Z,10212
2017-07-08T09:02:26.464Z,10392
2017-07-08T09:02:51.954Z,10628
2017-07-08T09:03:17.433Z,10684
2017-07-08T09:03:42.936Z,10840
2017-07-08T09:04:08.410Z,10820
2017-07-08T09:04:33.863Z,10772
2017-07-08T09:04:59.338Z,10540
2017-07-08T09:05:24.783Z,10492
2017-07-08T09:05:50.290Z,10464
2017-07-08T09:06:15.753Z,10456
2017-07-08T09:06:41.221Z,10648
2017-07-08T09:07:06.730Z,10508
2017-07-08T09:07:32.215Z,10744
2017-07-08T09:07:57.676Z,10440
2017-07-08T09:08:23.144Z,10656
2017-07-08T09:08:48.620Z,10664
2017-07-08T09:09:14.142Z,10700
2017-07-08T09:09:39.630Z,10572
2017-07-08T09:10:05.107Z,10636
2017-07-08T09:10:30.606Z,10568
2017-07-08T09:10:56.083Z,10324
2017-07-08T09:11:21.546Z,10136
2017-07-08T09:11:47.015Z,10168
2017-07-08T09:12:12.480Z,10584
2017-07-08T09:12:37.973Z,10668
2017-07-08T09:13:03.454Z,10528
2017-07-08T09:13:28.926Z,10636
2017-07-08T09:13:54.409Z,10708
2017-07-08T09:14:19.873Z,10736
2017-07-08T09:14:45.353Z,10880
2017-07-08T09:15:10.840Z,11096
2017-07-08T09:15:36.299Z,11084
2017-07-08T09:16:01.788Z,11112
2017-07-08T09:16:27.249Z,11184
2017-07-08T09:16:52.727Z,11224
2017-07-08T09:17:18.194Z,11128
2017-07-08T09:17:43.663Z,11060
2017-07-08T09:18:09.129Z,10920
2017-07-08T09:18:34.578Z,10944
2017-07-08T09:19:00.059Z,11440
2017-07-08T09:19:25.533Z,11052
2017-07-08T09:19:51.008Z,11144
2017-07-08T09:20:16.488Z,11212
2017-07-08T09:20:41.954Z,11236
2017-07-08T09:21:07.422Z,11300
2017-07-08T09:21:32.911Z,11380
2017-07-08T09:21:58.391Z,11256
2017-07-08T09:22:23.844Z,11168
2017-07-08T09:22:49.324Z,11032
2017-07-08T09:23:14.814Z,10948
2017-07-08T09:23:40.324Z,11016
2017-07-08T09:24:05.772Z,10940
2017-07-08T09:24:31.227Z,10876
2017-07-08T09:24:56.748Z,10972
2017-07-08T09:25:22.230Z,11356
2017-07-08T09:25:47.714Z,11072
2017-07-08T09:26:13.186Z,10980
2017-07-08T09:26:38.671Z,10888
2017-07-08T09:27:04.162Z,10752
2017-07-08T09:27:29.644Z,10876
2017-07-08T09:27:55.117Z,10992
2017-07-08T09:28:20.577Z,11084
2017-07-08T09:28:46.017Z,11072
2017-07-08T09:29:11.509Z,11044
2017-07-08T09:29:36.970Z,11084
2017-07-08T09:30:02.455Z,11052
2017-07-08T09:30:27.939Z,11020
2017-07-08T09:30:53.436Z,10728
2017-07-08T09:31:18.932Z,10480
2017-07-08T09:31:44.404Z,10332
2017-07-08T09:32:09.881Z,10048
2017-07-08T09:32:35.337Z,9836
2017-07-08T09:33:00.819Z,9604
2017-07-08T09:33:26.306Z,9480
2017-07-08T09:33:51.747Z,9416
2017-07-08T09:34:17.221Z,9612
2017-07-08T09:34:42.711Z,9252
2017-07-08T09:35:08.185Z,9276
2017-07-08T09:35:33.664Z,9332
2017-07-08T09:35:59.155Z,9440
2017-07-08T09:36:24.650Z,9560
2017-07-08T09:36:50.170Z,9620
2017-07-08T09:37:15.641Z,9572
2017-07-08T09:37:41.115Z,9488
2017-07-08T09:38:06.604Z,9512
2017-07-08T09:38:32.078Z,9576
2017-07-08T09:38:57.602Z,9684
2017-07-08T09:39:23.062Z,9812
2017-07-08T09:39:48.522Z,9924
2017-07-08T09:40:13.988Z,10200
2017-07-08T09:40:39.451Z,10504
2017-07-08T09:41:04.917Z,10632
2017-07-08T09:41:30.384Z,10804
2017-07-08T09:41:55.876Z,11016
2017-07-08T09:42:21.351Z,11080
2017-07-08T09:42:46.839Z,11284
2017-07-08T09:43:12.308Z,11412
2017-07-08T09:43:37.771Z,11564
2017-07-08T09:44:03.218Z,11536
2017-07-08T09:44:28.706Z,11628
2017-07-08T09:44:54.209Z,11592
2017-07-08T09:45:19.666Z,11412
2017-07-08T09:45:45.151Z,11180
2017-07-08T09:46:10.605Z,11048
2017-07-08T09:46:36.065Z,10992
2017-07-08T09:47:01.535Z,10784
2017-07-08T09:47:26.987Z,10468
2017-07-08T09:47:52.501Z,10172
2017-07-08T09:48:17.978Z,10136
2017-07-08T09:48:43.439Z,10424
2017-07-08T09:49:08.948Z,10688
2017-07-08T09:49:34.431Z,10860
2017-07-08T09:49:59.928Z,11028
2017-07-08T09:50:25.392Z,11232
2017-07-08T09:50:50.876Z,11392
2017-07-08T09:51:16.336Z,11380
2017-07-08T09:51:41.826Z,11324
2017-07-08T09:52:07.309Z,11324
2017-07-08T09:52:32.768Z,11440
2017-07-08T09:52:58.250Z,11580
2017-07-08T09:53:23.714Z,11716
2017-07-08T09:53:49.197Z,11684
2017-07-08T09:54:14.693Z,11568
2017-07-08T09:54:40.164Z,11532
2017-07-08T09:55:05.656Z,11604
2017-07-08T09:55:31.123Z,11528
2017-07-08T09:55:56.586Z,11484
2017-07-08T09:56:22.073Z,11744
2017-07-08T09:56:47.569Z,12016
2017-07-08T09:57:13.050Z,12324
2017-07-08T09:57:38.520Z,12560
2017-07-08T09:58:04.006Z,12780
2017-07-08T09:58:29.458Z,12936
2017-07-08T09:58:54.918Z,12892
2017-07-08T09:59:20.378Z,12684
2017-07-08T09:59:45.850Z,12368
2017-07-08T10:00:11.299Z,12068
2017-07-08T10:00:36.834Z,11824
2017-07-08T10:01:02.325Z,11624
2017-07-08T10:01:27.832Z,11540
2017-07-08T10:01:53.290Z,11636
2017-07-08T10:02:18.768Z,11520
2017-07-08T10:02:44.250Z,11312
2017-07-08T10:03:09.713Z,11220
2017-07-08T10:03:35.185Z,11112
2017-07-08T10:04:00.678Z,10972
2017-07-08T10:04:26.166Z,10732
2017-07-08T10:04:51.646Z,10688
2017-07-08T10:05:17.150Z,10948
2017-07-08T10:05:42.628Z,11192
2017-07-08T10:06:08.104Z,11520
2017-07-08T10:06:33.577Z,11604
2017-07-08T10:06:59.052Z,11596
2017-07-08T10:07:24.537Z,11472
2017-07-08T10:07:50.009Z,11312
2017-07-08T10:08:15.474Z,11140
2017-07-08T10:08:40.942Z,10912
2017-07-08T10:09:06.418Z,10732
2017-07-08T10:09:31.891Z,10624
2017-07-08T10:09:57.429Z,10564
2017-07-08T10:10:22.943Z,10536
2017-07-08T10:10:48.386Z,10348
2017-07-08T10:11:13.881Z,10312
2017-07-08T10:11:39.334Z,10268
2017-07-08T10:12:04.794Z,10308
2017-07-08T10:12:30.296Z,10484
2017-07-08T10:12:55.739Z,10844
2017-07-08T10:13:21.230Z,11212
2017-07-08T10:13:46.709Z,11348
2017-07-08T10:14:12.181Z,11216
2017-07-08T10:14:37.661Z,11064
2017-07-08T10:15:03.132Z,10984
2017-07-08T10:15:28.628Z,10992
2017-07-08T10:15:54.086Z,11136
2017-07-08T10:16:19.558Z,11256
2017-07-08T10:16:45.025Z,11408
2017-07-08T10:17:10.510Z,11568
2017-07-08T10:17:35.978Z,11672
2017-07-08T10:18:01.434Z,11604
2017-07-08T10:18:26.937Z,11556
2017-07-08T10:18:52.391Z,11496
2017-07-08T10:19:17.877Z,11604
2017-07-08T10:19:43.360Z,11908
2017-07-08T10:20:08.809Z,12208
2017-07-08T10:20:34.300Z,12340
2017-07-08T10:20:59.824Z,12432
2017-07-08T10:21:25.236Z,12252
2017-07-08T10:21:50.700Z,11724
2017-07-08T10:22:16.163Z,11008
2017-07-08T10:22:41.703Z,10712
2017-07-08T10:23:07.120Z,11044
2017-07-08T10:23:32.600Z,11648
2017-07-08T10:23:58.049Z,12160
2017-07-08T10:24:23.524Z,12416
2017-07-08T10:24:49.010Z,12564
2017-07-08T10:25:14.462Z,12608
2017-07-08T10:25:39.923Z,12640
2017-07-08T10:26:05.414Z,12516
2017-07-08T10:26:30.890Z,11928
2017-07-08T10:26:56.364Z,10948
2017-07-08T10:27:21.871Z,10312
2017-07-08T10:27:47.368Z,10248
2017-07-08T10:28:12.851Z,10452
2017-07-08T10:28:38.312Z,10492
2017-07-08T10:29:03.824Z,10568
2017-07-08T10:29:29.298Z,10760
2017-07-08T10:29:54.799Z,11012
2017-07-08T10:30:20.271Z,11396
2017-07-08T10:30:45.744Z,11916
2017-07-08T10:31:11.236Z,12188
2017-07-08T10:31:36.697Z,12168
2017-07-08T10:32:02.172Z,11980
2017-07-08T10:32:27.644Z,11676
2017-07-08T10:32:53.104Z,11396
2017-07-08T10:33:18.584Z,11376
2017-07-08T10:33:44.059Z,11680
2017-07-08T10:34:09.524Z,12084
2017-07-08T10:34:35.015Z,12300
2017-07-08T10:35:00.490Z,12304
2017-07-08T10:35:25.987Z,11980
2017-07-08T10:35:51.444Z,11740
2017-07-08T10:36:16.947Z,11644
2017-07-08T10:36:42.440Z,11580
2017-07-08T10:37:07.903Z,11884
2017-07-08T10:37:33.423Z,11872
2017-07-08T10:37:58.874Z,11728
2017-07-08T10:38:24.343Z,11540
2017-07-08T10:38:49.829Z,11556
2017-07-08T10:39:15.309Z,11400
2017-07-08T10:39:40.804Z,11024
2017-07-08T10:40:06.265Z,10668
2017-07-08T10:40:31.761Z,10676
2017-07-08T10:40:57.275Z,11096
2017-07-08T10:41:22.715Z,11776
2017-07-08T10:41:48.196Z,11816
2017-07-08T10:42:13.676Z,11516
2017-07-08T10:42:39.200Z,11092
2017-07-08T10:43:04.709Z,11048
2017-07-08T10:43:30.122Z,11164
2017-07-08T10:43:55.619Z,11328
2017-07-08T10:44:21.096Z,11464
2017-07-08T10:44:46.599Z,11396
2017-07-08T10:45:12.075Z,11248
2017-07-08T10:45:37.552Z,11316
2017-07-08T10:46:03.039Z,11056
2017-07-08T10:46:28.483Z,10912
2017-07-08T10:46:53.946Z,11040
2017-07-08T10:47:19.437Z,11220
2017-07-08T10:47:44.927Z,11484
2017-07-08T10:48:10.423Z,11512
2017-07-08T10:48:35.930Z,11596
2017-07-08T10:49:01.421Z,11544
2017-07-08T10:49:26.884Z,11472
2017-07-08T10:49:52.369Z,11488
2017-07-08T10:50:17.834Z,11248
2017-07-08T10:50:43.320Z,10900
2017-07-08T10:51:08.782Z,10756
2017-07-08T10:51:34.244Z,10680
2017-07-08T10:51:59.704Z,10660
2017-07-08T10:52:25.216Z,10688
2017-07-08T10:52:50.702Z,10844
2017-07-08T10:53:16.212Z,11040
2017-07-08T10:53:41.681Z,11172
2017-07-08T10:54:07.184Z,11236
2017-07-08T10:54:32.611Z,11384
2017-07-08T10:54:58.091Z,11480
2017-07-08T10:55:23.555Z,11500
2017-07-08T10:55:49.043Z,11656
2017-07-08T10:56:14.490Z,11740
2017-07-08T10:56:39.977Z,11820
2017-07-08T10:57:05.470Z,11916
2017-07-08T10:57:30.941Z,11920
2017-07-08T10:57:56.438Z,11828
2017-07-08T10:58:21.898Z,11824
2017-07-08T10:58:47.402Z,11784
2017-07-08T10:59:12.888Z,11596
2017-07-08T10:59:38.366Z,11268
2017-07-08T11:00:03.804Z,10856
2017-07-08T11:00:29.262Z,10472
2017-07-08T11:00:54.757Z,9960
2017-07-08T11:01:20.243Z,9560
2017-07-08T11:01:45.684Z,9284
2017-07-08T11:02:11.159Z,8964
2017-07-08T11:02:36.630Z,8484
2017-07-08T11:03:02.104Z,8000
2017-07-08T11:03:27.557Z,7688
2017-07-08T11:03:53.079Z,7612
2017-07-08T11:04:18.500Z,7724
2017-07-08T11:04:43.947Z,8036
2017-07-08T11:05:09.412Z,8344
2017-07-08T11:05:34.878Z,8584
2017-07-08T11:06:00.369Z,8936
2017-07-08T11:06:25.816Z,9540
2017-07-08T11:06:51.295Z,10176
2017-07-08T11:07:16.772Z,10532
2017-07-08T11:07:42.225Z,10820
2017-07-08T11:08:07.706Z,11044
2017-07-08T11:08:33.167Z,10948
2017-07-08T11:08:58.625Z,10736